createdAt,value
2022-12-26T00:00:10.106Z,0.00
2022-12-26T00:01:10.017Z,0.00
2022-12-26T00:02:10.059Z,0.00
2022-12-26T00:03:10.145Z,0.00
2022-12-26T00:04:51.490Z,0.00
2022-12-26T00:05:09.964Z,0.00
2022-12-26T00:06:09.964Z,0.00
2022-12-26T00:07:09.971Z,0.00
2022-12-26T00:08:10.074Z,0.00
2022-12-26T00:09:09.923Z,0.00
2022-12-26T00:10:09.946Z,0.00
2022-12-26T00:11:09.967Z,0.00
2022-12-26T00:12:09.886Z,0.00
2022-12-26T00:13:38.899Z,0.00
2022-12-26T00:14:10.000Z,0.00
2022-12-26T00:15:09.859Z,0.00
2022-12-26T00:16:09.970Z,0.00
2022-12-26T00:17:09.852Z,0.00
2022-12-26T00:18:09.837Z,0.00
2022-12-26T00:19:09.820Z,0.00
2022-12-26T00:20:09.918Z,0.00
2022-12-26T00:21:09.806Z,0.00
2022-12-26T00:22:09.802Z,0.00
2022-12-26T00:23:09.774Z,0.00
2022-12-26T00:24:16.247Z,0.00
2022-12-26T00:25:09.742Z,0.00
2022-12-26T00:26:09.913Z,0.00
2022-12-26T00:27:09.743Z,0.00
2022-12-26T00:28:09.720Z,0.00
2022-12-26T00:29:09.721Z,0.00
2022-12-26T00:30:09.705Z,0.00
2022-12-26T00:31:09.720Z,0.00
2022-12-26T00:32:09.835Z,0.00
2022-12-26T00:33:09.716Z,0.00
2022-12-26T00:34:09.658Z,0.00
2022-12-26T00:35:09.714Z,0.00
2022-12-26T00:36:09.670Z,0.00
2022-12-26T00:37:09.634Z,0.00
2022-12-26T00:38:09.798Z,0.00
2022-12-26T00:39:09.684Z,0.00
2022-12-26T00:40:09.643Z,0.00
2022-12-26T00:41:09.628Z,0.00
2022-12-26T00:42:09.638Z,0.00
2022-12-26T00:43:09.567Z,0.00
2022-12-26T00:44:09.752Z,0.00
2022-12-26T00:45:09.544Z,0.00
2022-12-26T00:46:09.546Z,0.00
2022-12-26T00:47:09.554Z,0.00
2022-12-26T00:48:09.537Z,0.00
2022-12-26T00:49:09.495Z,0.00
2022-12-26T00:50:12.539Z,0.00
2022-12-26T00:51:09.483Z,0.00
2022-12-26T00:52:09.489Z,0.00
2022-12-26T00:53:09.464Z,0.00
2022-12-26T00:54:09.454Z,0.00
2022-12-26T00:55:09.445Z,0.00
2022-12-26T00:56:09.573Z,0.00
2022-12-26T00:57:09.409Z,0.00
2022-12-26T00:58:09.411Z,0.00
2022-12-26T00:59:09.404Z,0.00
2022-12-26T01:00:09.414Z,0.00
2022-12-26T01:01:09.556Z,0.00
2022-12-26T01:02:09.757Z,0.00
2022-12-26T01:03:09.418Z,0.00
2022-12-26T01:04:09.354Z,0.00
2022-12-26T01:05:09.326Z,0.00
2022-12-26T01:06:09.339Z,0.00
2022-12-26T01:07:09.306Z,0.00
2022-12-26T01:08:23.453Z,0.00
2022-12-26T01:09:09.299Z,0.00
2022-12-26T01:10:09.282Z,0.00
2022-12-26T01:11:09.265Z,0.00
2022-12-26T01:12:09.255Z,0.00
2022-12-26T01:13:09.249Z,0.00
2022-12-26T01:14:09.298Z,0.00
2022-12-26T01:15:09.252Z,0.00
2022-12-26T01:16:09.312Z,0.00
2022-12-26T01:17:09.214Z,0.00
2022-12-26T01:18:09.202Z,0.00
2022-12-26T01:19:09.239Z,0.00
2022-12-26T01:20:09.207Z,0.00
2022-12-26T01:21:09.157Z,0.00
2022-12-26T01:22:09.156Z,0.00
2022-12-26T01:23:09.168Z,0.00
2022-12-26T01:24:17.117Z,0.00
2022-12-26T01:25:09.143Z,0.00
2022-12-26T01:26:18.818Z,0.00
2022-12-26T01:27:09.106Z,0.00
2022-12-26T01:28:09.088Z,0.00
2022-12-26T01:29:09.079Z,0.00
2022-12-26T01:30:09.076Z,0.00
2022-12-26T01:31:09.108Z,0.00
2022-12-26T01:32:09.362Z,0.00
2022-12-26T01:33:09.062Z,0.00
2022-12-26T01:34:09.030Z,0.00
2022-12-26T01:35:09.025Z,0.00
2022-12-26T01:36:09.011Z,0.00
2022-12-26T01:37:08.992Z,0.00
2022-12-26T01:38:09.013Z,0.00
2022-12-26T01:39:08.980Z,0.00
2022-12-26T01:40:08.961Z,0.00
2022-12-26T01:41:08.947Z,0.00
2022-12-26T01:42:08.938Z,0.00
2022-12-26T01:43:08.929Z,0.00
2022-12-26T01:44:09.079Z,0.00
2022-12-26T01:45:08.906Z,0.00
2022-12-26T01:46:08.947Z,0.00
2022-12-26T01:47:08.888Z,0.00
2022-12-26T01:48:08.898Z,0.00
2022-12-26T01:49:08.874Z,0.00
2022-12-26T01:50:08.900Z,0.00
2022-12-26T01:51:08.866Z,0.00
2022-12-26T01:52:08.851Z,0.00
2022-12-26T01:53:08.831Z,0.00
2022-12-26T01:54:40.501Z,0.00
2022-12-26T01:55:08.805Z,0.00
2022-12-26T01:56:08.935Z,0.00
2022-12-26T01:57:08.789Z,0.00
2022-12-26T01:58:08.780Z,0.00
2022-12-26T01:59:08.781Z,0.00
2022-12-26T02:00:08.756Z,0.00
2022-12-26T02:01:08.926Z,0.00
2022-12-26T02:02:09.107Z,0.00
2022-12-26T02:03:08.869Z,0.00
2022-12-26T02:04:08.708Z,0.00
2022-12-26T02:05:08.702Z,0.00
2022-12-26T02:06:08.695Z,0.00
2022-12-26T02:07:08.697Z,0.00
2022-12-26T02:08:08.799Z,0.00
2022-12-26T02:09:08.656Z,0.00
2022-12-26T02:10:08.660Z,0.00
2022-12-26T02:11:08.638Z,0.00
2022-12-26T02:12:37.246Z,0.00
2022-12-26T02:13:08.622Z,0.00
2022-12-26T02:14:08.659Z,0.00
2022-12-26T02:15:08.611Z,0.00
2022-12-26T02:16:08.839Z,0.00
2022-12-26T02:17:08.573Z,0.00
2022-12-26T02:18:08.559Z,0.00
2022-12-26T02:19:08.583Z,0.00
2022-12-26T02:20:08.729Z,0.00
2022-12-26T02:21:08.531Z,0.00
2022-12-26T02:22:08.561Z,0.00
2022-12-26T02:23:08.540Z,0.00
2022-12-26T02:24:14.984Z,0.00
2022-12-26T02:25:08.491Z,0.00
2022-12-26T02:26:08.519Z,0.00
2022-12-26T02:27:08.483Z,0.00
2022-12-26T02:28:08.461Z,0.00
2022-12-26T02:29:08.460Z,0.00
2022-12-26T02:30:08.437Z,0.00
2022-12-26T02:31:08.456Z,0.00
2022-12-26T02:32:08.780Z,0.00
2022-12-26T02:33:08.408Z,0.00
2022-12-26T02:34:08.407Z,0.00
2022-12-26T02:35:08.388Z,0.00
2022-12-26T02:36:08.367Z,0.00
2022-12-26T02:37:08.424Z,0.00
2022-12-26T02:38:08.520Z,0.00
2022-12-26T02:39:45.499Z,0.00
2022-12-26T02:40:08.351Z,0.00
2022-12-26T02:41:08.318Z,0.00
2022-12-26T02:42:08.326Z,0.00
2022-12-26T02:43:08.302Z,0.00
2022-12-26T02:44:08.336Z,0.00
2022-12-26T02:45:08.295Z,0.00
2022-12-26T02:46:08.393Z,0.00
2022-12-26T02:47:08.308Z,0.00
2022-12-26T02:48:08.268Z,0.00
2022-12-26T02:49:08.258Z,0.00
2022-12-26T02:50:08.273Z,0.00
2022-12-26T02:51:08.216Z,0.00
2022-12-26T02:52:08.207Z,0.00
2022-12-26T02:53:08.233Z,0.00
2022-12-26T02:54:08.199Z,0.00
2022-12-26T02:55:08.172Z,0.00
2022-12-26T02:56:08.330Z,0.00
2022-12-26T02:57:08.154Z,0.00
2022-12-26T02:58:08.144Z,0.00
2022-12-26T02:59:08.140Z,0.00
2022-12-26T03:00:08.148Z,0.00
2022-12-26T03:01:08.333Z,0.00
2022-12-26T03:02:08.364Z,0.00
2022-12-26T03:03:08.215Z,0.00
2022-12-26T03:04:08.147Z,0.00
2022-12-26T03:05:08.108Z,0.00
2022-12-26T03:06:08.074Z,0.00
2022-12-26T03:07:08.056Z,0.00
2022-12-26T03:08:08.186Z,0.00
2022-12-26T03:09:08.031Z,0.00
2022-12-26T03:10:08.025Z,0.00
2022-12-26T03:11:08.023Z,0.00
2022-12-26T03:12:07.989Z,0.00
2022-12-26T03:13:07.982Z,0.00
2022-12-26T03:14:08.107Z,0.00
2022-12-26T03:15:07.987Z,0.00
2022-12-26T03:16:07.955Z,0.00
2022-12-26T03:17:08.038Z,0.00
2022-12-26T03:18:07.957Z,0.00
2022-12-26T03:19:07.931Z,0.00
2022-12-26T03:20:07.928Z,0.00
2022-12-26T03:21:07.939Z,0.00
2022-12-26T03:22:07.897Z,0.00
2022-12-26T03:23:07.879Z,0.00
2022-12-26T03:24:15.163Z,0.00
2022-12-26T03:25:07.857Z,0.00
2022-12-26T03:26:07.965Z,0.00
2022-12-26T03:27:07.843Z,0.00
2022-12-26T03:28:07.822Z,0.00
2022-12-26T03:29:07.819Z,0.00
2022-12-26T03:30:07.796Z,0.00
2022-12-26T03:31:08.035Z,0.00
2022-12-26T03:32:07.897Z,0.00
2022-12-26T03:33:07.782Z,0.00
2022-12-26T03:34:07.752Z,0.00
2022-12-26T03:35:07.871Z,0.00
2022-12-26T03:36:07.740Z,0.00
2022-12-26T03:37:07.736Z,0.00
2022-12-26T03:38:07.964Z,0.00
2022-12-26T03:39:07.927Z,0.00
2022-12-26T03:40:07.703Z,0.00
2022-12-26T03:41:07.690Z,0.00
2022-12-26T03:42:07.671Z,0.00
2022-12-26T03:43:07.668Z,0.00
2022-12-26T03:44:07.777Z,0.00
2022-12-26T03:45:07.658Z,0.00
2022-12-26T03:46:07.724Z,0.00
2022-12-26T03:47:07.623Z,0.00
2022-12-26T03:48:07.611Z,0.00
2022-12-26T03:49:07.600Z,0.00
2022-12-26T03:50:07.744Z,0.00
2022-12-26T03:51:07.591Z,0.00
2022-12-26T03:52:07.601Z,0.00
2022-12-26T03:53:07.566Z,0.00
2022-12-26T03:54:07.542Z,0.00
2022-12-26T03:55:07.545Z,0.00
2022-12-26T03:56:07.551Z,0.00
2022-12-26T03:57:07.522Z,0.00
2022-12-26T03:58:07.500Z,0.00
2022-12-26T03:59:07.541Z,0.00
2022-12-26T04:00:07.475Z,0.00
2022-12-26T04:01:07.640Z,0.00
2022-12-26T04:02:07.710Z,0.00
2022-12-26T04:03:07.588Z,0.00
2022-12-26T04:04:07.510Z,0.00
2022-12-26T04:05:07.431Z,0.00
2022-12-26T04:06:07.456Z,0.00
2022-12-26T04:07:07.412Z,0.00
2022-12-26T04:08:07.447Z,0.00
2022-12-26T04:09:07.390Z,0.00
2022-12-26T04:10:07.447Z,0.00
2022-12-26T04:11:07.407Z,0.00
2022-12-26T04:12:07.378Z,0.00
2022-12-26T04:13:07.361Z,0.00
2022-12-26T04:14:07.484Z,0.00
2022-12-26T04:15:07.381Z,0.00
2022-12-26T04:16:07.328Z,0.00
2022-12-26T04:17:07.330Z,0.00
2022-12-26T04:18:07.324Z,0.00
2022-12-26T04:19:07.283Z,0.00
2022-12-26T04:20:07.351Z,0.00
2022-12-26T04:21:07.282Z,0.00
2022-12-26T04:22:07.267Z,0.00
2022-12-26T04:23:07.257Z,0.00
2022-12-26T04:24:07.231Z,0.00
2022-12-26T04:25:07.229Z,0.00
2022-12-26T04:26:07.377Z,0.00
2022-12-26T04:27:07.204Z,0.00
2022-12-26T04:28:07.179Z,0.00
2022-12-26T04:29:07.184Z,0.00
2022-12-26T04:30:07.188Z,0.00
2022-12-26T04:31:07.270Z,0.00
2022-12-26T04:32:07.288Z,0.00
2022-12-26T04:33:07.161Z,0.00
2022-12-26T04:34:07.124Z,0.00
2022-12-26T04:35:07.118Z,0.00
2022-12-26T04:36:07.108Z,0.00
2022-12-26T04:37:07.092Z,0.00
2022-12-26T04:38:07.212Z,0.00
2022-12-26T04:39:07.083Z,0.00
2022-12-26T04:40:07.069Z,0.00
2022-12-26T04:41:07.072Z,0.00
2022-12-26T04:42:07.038Z,0.00
2022-12-26T04:43:46.618Z,0.00
2022-12-26T04:44:07.083Z,0.00
2022-12-26T04:45:07.050Z,0.00
2022-12-26T04:46:07.015Z,0.00
2022-12-26T04:47:06.987Z,0.00
2022-12-26T04:48:06.980Z,0.00
2022-12-26T04:49:07.021Z,0.00
2022-12-26T04:50:07.012Z,0.00
2022-12-26T04:51:06.961Z,0.00
2022-12-26T04:52:06.937Z,0.00
2022-12-26T04:53:06.934Z,0.00
2022-12-26T04:54:06.922Z,0.00
2022-12-26T04:55:06.908Z,0.00
2022-12-26T04:56:07.056Z,0.00
2022-12-26T04:57:06.884Z,0.00
2022-12-26T04:58:06.868Z,0.00
2022-12-26T04:59:06.863Z,0.00
2022-12-26T05:00:06.858Z,0.00
2022-12-26T05:01:06.869Z,0.00
2022-12-26T05:02:07.079Z,0.00
2022-12-26T05:03:06.886Z,0.00
2022-12-26T05:04:06.831Z,0.00
2022-12-26T05:05:06.804Z,0.00
2022-12-26T05:06:06.818Z,0.00
2022-12-26T05:07:06.798Z,0.00
2022-12-26T05:08:06.804Z,0.00
2022-12-26T05:09:06.778Z,0.00
2022-12-26T05:10:06.745Z,0.00
2022-12-26T05:11:06.783Z,0.00
2022-12-26T05:12:06.755Z,0.00
2022-12-26T05:13:06.713Z,0.00
2022-12-26T05:14:06.751Z,0.00
2022-12-26T05:15:06.738Z,0.00
2022-12-26T05:16:06.802Z,0.00
2022-12-26T05:17:06.703Z,0.00
2022-12-26T05:18:06.711Z,0.00
2022-12-26T05:19:06.688Z,0.00
2022-12-26T05:20:06.665Z,0.00
2022-12-26T05:21:06.642Z,0.00
2022-12-26T05:22:06.611Z,0.00
2022-12-26T05:23:06.626Z,0.00
2022-12-26T05:24:06.594Z,0.00
2022-12-26T05:25:06.605Z,0.00
2022-12-26T05:26:06.733Z,0.00
2022-12-26T05:27:06.570Z,0.00
2022-12-26T05:28:06.624Z,0.00
2022-12-26T05:29:06.588Z,0.00
2022-12-26T05:30:06.559Z,0.00
2022-12-26T05:31:06.603Z,0.00
2022-12-26T05:32:06.571Z,0.00
2022-12-26T05:33:06.523Z,0.00
2022-12-26T05:34:06.512Z,0.00
2022-12-26T05:35:06.527Z,0.00
2022-12-26T05:36:06.470Z,0.00
2022-12-26T05:37:06.470Z,0.00
2022-12-26T05:38:06.578Z,0.00
2022-12-26T05:39:06.479Z,0.00
2022-12-26T05:40:06.442Z,0.00
2022-12-26T05:41:06.460Z,0.00
2022-12-26T05:42:06.402Z,0.00
2022-12-26T05:43:06.443Z,0.00
2022-12-26T05:44:06.599Z,0.00
2022-12-26T05:45:06.384Z,0.00
2022-12-26T05:46:06.404Z,0.00
2022-12-26T05:47:06.400Z,0.00
2022-12-26T05:48:06.360Z,0.00
2022-12-26T05:49:06.353Z,0.00
2022-12-26T05:50:06.652Z,0.00
2022-12-26T05:51:06.336Z,0.00
2022-12-26T05:52:06.313Z,0.00
2022-12-26T05:53:06.322Z,0.00
2022-12-26T05:54:06.284Z,0.00
2022-12-26T05:55:06.282Z,0.00
2022-12-26T05:56:06.486Z,0.00
2022-12-26T05:57:06.250Z,0.00
2022-12-26T05:58:06.288Z,0.00
2022-12-26T05:59:06.236Z,0.00
2022-12-26T06:00:06.258Z,0.00
2022-12-26T06:01:06.290Z,0.00
2022-12-26T06:02:06.492Z,0.00
2022-12-26T06:03:06.327Z,0.00
2022-12-26T06:04:06.185Z,0.00
2022-12-26T06:05:06.176Z,0.00
2022-12-26T06:06:06.167Z,0.00
2022-12-26T06:07:06.144Z,0.00
2022-12-26T06:08:06.442Z,0.00
2022-12-26T06:09:06.179Z,0.00
2022-12-26T06:10:06.131Z,0.00
2022-12-26T06:11:06.099Z,0.00
2022-12-26T06:12:06.097Z,0.00
2022-12-26T06:13:06.099Z,0.00
2022-12-26T06:14:06.111Z,0.00
2022-12-26T06:15:06.134Z,0.00
2022-12-26T06:16:06.154Z,0.00
2022-12-26T06:17:06.092Z,0.00
2022-12-26T06:18:06.038Z,0.00
2022-12-26T06:19:06.022Z,0.00
2022-12-26T06:20:06.199Z,0.00
2022-12-26T06:21:06.013Z,0.00
2022-12-26T06:22:05.984Z,0.00
2022-12-26T06:23:05.978Z,0.00
2022-12-26T06:24:05.986Z,0.00
2022-12-26T06:25:05.982Z,0.00
2022-12-26T06:26:06.072Z,0.00
2022-12-26T06:27:05.929Z,0.00
2022-12-26T06:28:05.961Z,0.00
2022-12-26T06:29:05.921Z,0.00
2022-12-26T06:30:05.968Z,0.00
2022-12-26T06:31:05.913Z,0.00
2022-12-26T06:32:05.994Z,0.00
2022-12-26T06:33:05.875Z,0.00
2022-12-26T06:34:05.892Z,0.00
2022-12-26T06:35:05.887Z,0.00
2022-12-26T06:36:05.842Z,0.00
2022-12-26T06:37:05.865Z,0.00
2022-12-26T06:38:05.859Z,0.00
2022-12-26T06:39:05.815Z,0.00
2022-12-26T06:40:05.827Z,0.00
2022-12-26T06:41:05.790Z,0.00
2022-12-26T06:42:05.785Z,0.00
2022-12-26T06:43:05.771Z,0.00
2022-12-26T06:44:05.887Z,0.00
2022-12-26T06:45:05.769Z,0.00
2022-12-26T06:46:05.751Z,0.00
2022-12-26T06:47:05.774Z,0.00
2022-12-26T06:48:05.749Z,0.00
2022-12-26T06:49:05.715Z,0.00
2022-12-26T06:50:05.759Z,0.00
2022-12-26T06:51:05.689Z,0.00
2022-12-26T06:52:05.673Z,0.00
2022-12-26T06:53:05.673Z,0.00
2022-12-26T06:54:05.690Z,0.00
2022-12-26T06:55:05.654Z,0.00
2022-12-26T06:56:05.698Z,0.00
2022-12-26T06:57:05.625Z,0.00
2022-12-26T06:58:05.618Z,0.00
2022-12-26T06:59:05.599Z,0.00
2022-12-26T07:00:05.628Z,0.00
2022-12-26T07:01:05.816Z,0.00
2022-12-26T07:02:05.817Z,0.00
2022-12-26T07:03:05.611Z,0.00
2022-12-26T07:04:05.561Z,0.00
2022-12-26T07:05:05.698Z,0.00
2022-12-26T07:06:05.543Z,0.00
2022-12-26T07:07:05.517Z,0.00
2022-12-26T07:08:05.642Z,0.00
2022-12-26T07:09:05.507Z,0.00
2022-12-26T07:10:05.489Z,0.00
2022-12-26T07:11:05.485Z,0.00
2022-12-26T07:12:05.468Z,0.00
2022-12-26T07:13:05.504Z,0.00
2022-12-26T07:14:05.514Z,0.00
2022-12-26T07:15:05.482Z,0.00
2022-12-26T07:16:05.484Z,0.00
2022-12-26T07:17:05.445Z,0.00
2022-12-26T07:18:05.403Z,0.00
2022-12-26T07:19:05.384Z,0.00
2022-12-26T07:20:05.413Z,0.00
2022-12-26T07:21:05.423Z,0.00
2022-12-26T07:22:05.365Z,0.00
2022-12-26T07:23:05.341Z,0.00
2022-12-26T07:24:05.342Z,0.00
2022-12-26T07:25:05.328Z,0.00
2022-12-26T07:26:05.441Z,0.00
2022-12-26T07:27:05.303Z,0.00
2022-12-26T07:28:05.293Z,0.00
2022-12-26T07:29:05.278Z,0.00
2022-12-26T07:30:05.269Z,0.00
2022-12-26T07:31:05.263Z,0.00
2022-12-26T07:32:05.475Z,0.00
2022-12-26T07:33:05.236Z,0.00
2022-12-26T07:34:05.236Z,0.00
2022-12-26T07:35:05.218Z,0.00
2022-12-26T07:36:05.203Z,0.00
2022-12-26T07:37:05.191Z,0.00
2022-12-26T07:38:05.353Z,0.00
2022-12-26T07:39:05.174Z,0.00
2022-12-26T07:40:05.190Z,0.00
2022-12-26T07:41:05.160Z,0.00
2022-12-26T07:42:05.149Z,0.00
2022-12-26T07:43:05.138Z,0.00
2022-12-26T07:44:05.155Z,0.00
2022-12-26T07:45:05.120Z,0.00
2022-12-26T07:46:05.125Z,0.00
2022-12-26T07:47:05.091Z,0.00
2022-12-26T07:48:05.092Z,0.00
2022-12-26T07:49:05.067Z,0.00
2022-12-26T07:50:05.282Z,0.00
2022-12-26T07:51:05.047Z,0.00
2022-12-26T07:52:05.045Z,0.00
2022-12-26T07:53:05.028Z,0.00
2022-12-26T07:54:10.633Z,0.00
2022-12-26T07:55:05.040Z,0.00
2022-12-26T07:56:05.078Z,0.00
2022-12-26T07:57:37.976Z,0.00
2022-12-26T07:58:04.987Z,0.00
2022-12-26T07:59:04.977Z,0.00
2022-12-26T08:00:04.958Z,0.00
2022-12-26T08:01:05.132Z,0.00
2022-12-26T08:02:05.252Z,0.00
2022-12-26T08:03:08.102Z,0.00
2022-12-26T08:04:04.940Z,0.00
2022-12-26T08:05:04.861Z,1.00
2022-12-26T08:06:04.843Z,1.00
2022-12-26T08:07:04.832Z,1.00
2022-12-26T08:08:04.973Z,3.00
2022-12-26T08:09:04.804Z,2.00
2022-12-26T08:10:04.923Z,0.00
2022-12-26T08:11:04.808Z,2.00
2022-12-26T08:12:04.770Z,2.00
2022-12-26T08:13:04.781Z,2.00
2022-12-26T08:14:04.893Z,2.00
2022-12-26T08:15:04.768Z,2.00
2022-12-26T08:16:04.733Z,2.00
2022-12-26T08:17:04.883Z,2.00
2022-12-26T08:18:04.709Z,2.00
2022-12-26T08:19:04.740Z,2.00
2022-12-26T08:20:04.752Z,2.00
2022-12-26T08:21:04.690Z,2.00
2022-12-26T08:22:04.688Z,2.00
2022-12-26T08:23:04.658Z,2.00
2022-12-26T08:24:04.651Z,2.00
2022-12-26T08:25:04.648Z,2.00
2022-12-26T08:26:04.782Z,1.00
2022-12-26T08:27:04.617Z,3.00
2022-12-26T08:28:04.634Z,3.00
2022-12-26T08:29:04.600Z,3.00
2022-12-26T08:30:04.585Z,1.00
2022-12-26T08:31:04.571Z,1.00
2022-12-26T08:32:04.606Z,3.00
2022-12-26T08:33:04.545Z,3.00
2022-12-26T08:34:04.553Z,3.00
2022-12-26T08:35:04.524Z,3.00
2022-12-26T08:36:04.525Z,3.00
2022-12-26T08:37:04.505Z,3.00
2022-12-26T08:38:04.668Z,3.00
2022-12-26T08:39:04.516Z,3.00
2022-12-26T08:40:04.518Z,1.00
2022-12-26T08:41:04.475Z,1.00
2022-12-26T08:42:04.506Z,1.00
2022-12-26T08:43:22.081Z,0.00
2022-12-26T08:45:04.501Z,1.00
2022-12-26T08:46:04.703Z,3.00
2022-12-26T08:47:04.427Z,2.00
2022-12-26T08:48:04.455Z,0.00
2022-12-26T08:49:04.441Z,0.00
2022-12-26T08:50:04.485Z,0.00
2022-12-26T08:51:04.639Z,1.00
2022-12-26T08:52:04.371Z,3.00
2022-12-26T08:53:04.374Z,2.00
2022-12-26T08:54:04.419Z,1.00
2022-12-26T08:55:04.325Z,2.00
2022-12-26T08:56:04.428Z,0.00
2022-12-26T08:57:04.356Z,0.00
2022-12-26T08:58:04.403Z,0.00
2022-12-26T08:59:04.340Z,0.00
2022-12-26T09:00:04.423Z,0.00
2022-12-26T09:01:04.386Z,0.00
2022-12-26T09:02:04.606Z,0.00
2022-12-26T09:03:04.350Z,0.00
2022-12-26T09:04:04.341Z,0.00
2022-12-26T09:05:04.225Z,2.00
2022-12-26T09:06:06.438Z,1.00
2022-12-26T09:07:04.254Z,0.00
2022-12-26T09:08:04.245Z,1.00
2022-12-26T09:09:04.180Z,1.00
2022-12-26T09:10:04.176Z,1.00
2022-12-26T09:11:04.199Z,0.00
2022-12-26T09:12:04.200Z,0.00
2022-12-26T09:13:04.185Z,0.00
2022-12-26T09:14:04.258Z,0.00
2022-12-26T09:15:04.166Z,0.00
2022-12-26T09:16:04.123Z,2.00
2022-12-26T09:17:04.223Z,1.00
2022-12-26T09:18:04.087Z,1.00
2022-12-26T09:19:04.078Z,1.00
2022-12-26T09:20:04.133Z,1.00
2022-12-26T09:21:04.067Z,4.00
2022-12-26T09:22:04.044Z,4.00
2022-12-26T09:23:04.032Z,3.00
2022-12-26T09:24:04.026Z,1.00
2022-12-26T09:25:04.003Z,3.00
2022-12-26T09:26:04.167Z,5.00
2022-12-26T09:27:04.011Z,2.00
2022-12-26T09:28:03.983Z,2.00
2022-12-26T09:29:03.961Z,2.00
2022-12-26T09:30:03.966Z,1.00
2022-12-26T09:31:04.036Z,1.00
2022-12-26T09:32:04.094Z,5.00
2022-12-26T09:33:04.146Z,3.00
2022-12-26T09:34:03.911Z,4.00
2022-12-26T09:35:03.901Z,3.00
2022-12-26T09:36:07.211Z,1.00
2022-12-26T09:37:03.901Z,1.00
2022-12-26T09:38:03.917Z,2.00
2022-12-26T09:39:03.862Z,4.00
2022-12-26T09:40:03.858Z,4.00
2022-12-26T09:41:03.880Z,4.00
2022-12-26T09:42:03.842Z,4.00
2022-12-26T09:43:03.816Z,4.00
2022-12-26T09:44:03.905Z,5.00
2022-12-26T09:45:03.808Z,1.00
2022-12-26T09:46:03.846Z,1.00
2022-12-26T09:47:03.791Z,1.00
2022-12-26T09:48:03.768Z,1.00
2022-12-26T09:49:03.837Z,1.00
2022-12-26T09:50:03.858Z,1.00
2022-12-26T09:51:03.741Z,1.00
2022-12-26T09:52:03.730Z,1.00
2022-12-26T09:53:03.752Z,1.00
2022-12-26T09:54:03.831Z,0.00
2022-12-26T09:55:03.705Z,2.00
2022-12-26T09:56:03.744Z,2.00
2022-12-26T09:57:06.263Z,0.00
2022-12-26T09:58:03.758Z,0.00
2022-12-26T09:59:03.719Z,0.00
2022-12-26T10:00:03.703Z,0.00
2022-12-26T10:01:03.772Z,2.00
2022-12-26T10:02:03.982Z,1.00
2022-12-26T10:03:03.615Z,1.00
2022-12-26T10:04:03.647Z,1.00
2022-12-26T10:05:03.686Z,1.00
2022-12-26T10:06:03.577Z,1.00
2022-12-26T10:07:03.572Z,1.00
2022-12-26T10:08:03.722Z,4.00
2022-12-26T10:09:03.555Z,4.00
2022-12-26T10:10:03.639Z,1.00
2022-12-26T10:11:03.546Z,1.00
2022-12-26T10:12:03.516Z,1.00
2022-12-26T10:13:03.543Z,1.00
2022-12-26T10:14:03.543Z,1.00
2022-12-26T10:15:03.578Z,0.00
2022-12-26T10:16:03.567Z,0.00
2022-12-26T10:17:03.486Z,1.00
2022-12-26T10:18:03.456Z,1.00
2022-12-26T10:19:03.436Z,1.00
2022-12-26T10:20:03.484Z,4.00
2022-12-26T10:21:03.435Z,4.00
2022-12-26T10:22:03.405Z,1.00
2022-12-26T10:23:03.449Z,1.00
2022-12-26T10:24:59.604Z,1.00
2022-12-26T10:26:00.727Z,1.00
2022-12-26T10:27:00.563Z,1.00
2022-12-26T10:28:00.547Z,3.00
2022-12-26T10:29:00.546Z,2.00
2022-12-26T10:30:00.529Z,3.00
2022-12-26T10:31:00.577Z,3.00
2022-12-26T10:32:00.701Z,1.00
2022-12-26T10:33:00.493Z,2.00
2022-12-26T10:34:00.503Z,2.00
2022-12-26T10:35:00.517Z,4.00
2022-12-26T10:36:00.505Z,3.00
2022-12-26T10:37:00.464Z,3.00
2022-12-26T10:38:00.509Z,3.00
2022-12-26T10:39:00.453Z,4.00
2022-12-26T10:40:00.470Z,4.00
2022-12-26T10:41:00.410Z,6.00
2022-12-26T10:42:00.412Z,3.00
2022-12-26T10:43:00.405Z,6.00
2022-12-26T10:44:00.531Z,3.00
2022-12-26T10:45:00.376Z,7.00
2022-12-26T10:46:00.386Z,7.00
2022-12-26T10:47:00.351Z,7.00
2022-12-26T10:48:00.349Z,5.00
2022-12-26T10:49:00.426Z,8.00
2022-12-26T10:50:00.349Z,6.00
2022-12-26T10:51:00.310Z,4.00
2022-12-26T10:52:00.356Z,4.00
2022-12-26T10:53:00.303Z,4.00
2022-12-26T10:54:00.277Z,5.00
2022-12-26T10:55:28.680Z,2.00
2022-12-26T10:56:00.418Z,4.00
2022-12-26T10:57:00.249Z,4.00
2022-12-26T10:58:00.239Z,3.00
2022-12-26T10:59:00.287Z,2.00
2022-12-26T11:00:00.352Z,2.00
2022-12-26T11:01:00.200Z,2.00
2022-12-26T11:02:04.960Z,4.00
2022-12-26T11:03:00.305Z,5.00
2022-12-26T11:04:00.193Z,6.00
2022-12-26T11:06:08.827Z,5.00
2022-12-26T11:07:00.163Z,3.00
2022-12-26T11:08:00.455Z,3.00
2022-12-26T11:09:00.199Z,2.00
2022-12-26T11:10:00.139Z,5.00
2022-12-26T11:11:00.121Z,2.00
2022-12-26T11:12:00.170Z,2.00
2022-12-26T11:13:00.213Z,3.00
2022-12-26T11:14:02.474Z,4.00
2022-12-26T11:15:00.101Z,3.00
2022-12-26T11:16:00.106Z,3.00
2022-12-26T11:17:00.095Z,1.00
2022-12-26T11:18:00.034Z,2.00
2022-12-26T11:19:00.034Z,4.00
2022-12-26T11:20:00.035Z,4.00
2022-12-26T11:20:59.996Z,4.00
2022-12-26T11:21:59.976Z,1.00
2022-12-26T11:22:59.991Z,1.00
2022-12-26T11:23:59.959Z,1.00
2022-12-26T11:25:07.950Z,1.00
2022-12-26T11:25:59.929Z,1.00
2022-12-26T11:26:59.936Z,1.00
2022-12-26T11:27:59.925Z,1.00
2022-12-26T11:28:59.909Z,1.00
2022-12-26T11:29:59.907Z,4.00
2022-12-26T11:31:00.000Z,4.00
2022-12-26T11:31:59.894Z,4.00
2022-12-26T11:32:59.865Z,6.00
2022-12-26T11:33:59.909Z,0.00
2022-12-26T11:34:59.898Z,0.00
2022-12-26T11:35:59.846Z,1.00
2022-12-26T11:36:59.985Z,1.00
2022-12-26T11:37:59.819Z,1.00
2022-12-26T11:38:59.870Z,0.00
2022-12-26T11:39:59.845Z,0.00
2022-12-26T11:40:59.981Z,2.00
2022-12-26T11:41:59.799Z,2.00
2022-12-26T11:42:59.923Z,2.00
2022-12-26T11:43:59.743Z,2.00
2022-12-26T11:44:59.742Z,2.00
2022-12-26T11:45:59.726Z,1.00
2022-12-26T11:46:59.828Z,0.00
2022-12-26T11:47:59.709Z,1.00
2022-12-26T11:48:59.798Z,0.00
2022-12-26T11:49:59.736Z,0.00
2022-12-26T11:50:59.728Z,0.00
2022-12-26T11:52:00.158Z,1.00
2022-12-26T11:52:59.653Z,1.00
2022-12-26T11:53:59.669Z,1.00
2022-12-26T11:54:59.835Z,1.00
2022-12-26T11:55:59.621Z,1.00
2022-12-26T11:56:59.607Z,1.00
2022-12-26T11:57:59.619Z,1.00
2022-12-26T11:58:59.585Z,1.00
2022-12-26T11:59:59.587Z,1.00
2022-12-26T12:00:59.607Z,2.00
2022-12-26T12:01:59.664Z,2.00
2022-12-26T12:02:59.553Z,2.00
2022-12-26T12:03:59.544Z,3.00
2022-12-26T12:04:59.585Z,3.00
2022-12-26T12:05:59.520Z,3.00
2022-12-26T12:06:59.637Z,3.00
2022-12-26T12:07:59.494Z,6.00
2022-12-26T12:09:05.385Z,5.00
2022-12-26T12:09:59.479Z,4.00
2022-12-26T12:10:59.480Z,6.00
2022-12-26T12:11:59.447Z,6.00
2022-12-26T12:12:59.722Z,3.00
2022-12-26T12:13:59.445Z,4.00
2022-12-26T12:14:59.418Z,4.00
2022-12-26T12:15:59.429Z,4.00
2022-12-26T12:16:59.397Z,3.00
2022-12-26T12:17:59.395Z,4.00
2022-12-26T12:18:59.424Z,4.00
2022-12-26T12:19:59.368Z,4.00
2022-12-26T12:20:59.351Z,3.00
2022-12-26T12:21:59.352Z,4.00
2022-12-26T12:22:59.337Z,6.00
2022-12-26T12:23:59.344Z,5.00
2022-12-26T12:24:59.356Z,2.00
2022-12-26T12:25:59.303Z,3.00
2022-12-26T12:27:04.741Z,2.00
2022-12-26T12:27:59.302Z,1.00
2022-12-26T12:28:59.278Z,1.00
2022-12-26T12:29:59.267Z,1.00
2022-12-26T12:30:59.427Z,1.00
2022-12-26T12:31:59.341Z,1.00
2022-12-26T12:32:59.244Z,1.00
2022-12-26T12:33:59.221Z,1.00
2022-12-26T12:34:59.207Z,1.00
2022-12-26T12:35:59.220Z,2.00
2022-12-26T12:36:59.215Z,2.00
2022-12-26T12:37:59.190Z,5.00
2022-12-26T12:38:59.175Z,3.00
2022-12-26T12:39:59.180Z,7.00
2022-12-26T12:40:59.145Z,3.00
2022-12-26T12:41:59.161Z,2.00
2022-12-26T12:42:59.224Z,0.00
2022-12-26T12:43:59.145Z,1.00
2022-12-26T12:44:59.128Z,1.00
2022-12-26T12:45:59.275Z,0.00
2022-12-26T12:46:59.179Z,0.00
2022-12-26T12:47:59.096Z,1.00
2022-12-26T12:48:59.143Z,1.00
2022-12-26T12:49:59.051Z,1.00
2022-12-26T12:50:59.084Z,0.00
2022-12-26T12:51:59.038Z,3.00
2022-12-26T12:52:59.023Z,3.00
2022-12-26T12:53:59.041Z,3.00
2022-12-26T12:54:59.307Z,2.00
2022-12-26T12:55:59.044Z,0.00
2022-12-26T12:56:59.019Z,0.00
2022-12-26T12:57:59.035Z,0.00
2022-12-26T12:58:59.174Z,0.00
2022-12-26T12:59:59.003Z,0.00
2022-12-26T13:00:59.325Z,0.00
2022-12-26T13:02:02.681Z,0.00
2022-12-26T13:02:59.077Z,0.00
2022-12-26T13:03:58.923Z,2.00
2022-12-26T13:04:58.890Z,2.00
2022-12-26T13:05:58.873Z,4.00
2022-12-26T13:06:59.087Z,2.00
2022-12-26T13:07:58.867Z,3.00
2022-12-26T13:08:58.862Z,2.00
2022-12-26T13:09:58.923Z,0.00
2022-12-26T13:10:58.898Z,0.00
2022-12-26T13:11:58.899Z,0.00
2022-12-26T13:12:58.994Z,0.00
2022-12-26T13:13:58.853Z,0.00
2022-12-26T13:14:58.850Z,0.00
2022-12-26T13:15:58.855Z,0.00
2022-12-26T13:16:58.956Z,0.00
2022-12-26T13:17:58.855Z,0.00
2022-12-26T13:18:59.102Z,0.00
2022-12-26T13:20:02.250Z,0.00
2022-12-26T13:20:58.779Z,0.00